Fidelity
UTM 11U Easting = 45 1062, Northing = 56 76123     Elevation = 1905 m
Note to Users: This site contains raw data and is presented "as is" and in real time. Although reasonable care is exercised in providing this information, inaccuracies or omissions may occur due to the properties of weather and data collection systems. The Avalanche Control Section, responsible for its collection, disclaims all responsibility for the accuracy of the information.
Date Max Temp (deg C) Min Temp (deg C) Rel Hum (%) 1 Hr Precip (mm) 1 Hr Snow (cm) HS (cm) HN24 (cm) ILWR Max ILWR Min ILWR Ave ISWR Max ISWR Min ISWR Ave
2021-05-05 19:00 7 5 39 0.0 0 297 0 336 12 340 344 93 51
2021-05-05 20:00 5 3 42 0.0 0 298 0 333 0 334 338 25 2
2021-05-05 21:00 4 3 46 0.0 0 299 0 332 0 333 336 0 0
2021-05-05 22:00 3 2 50 0.0 0 299 0 329 0 331 332 0 0
2021-05-05 23:00 3 2 49 0.0 0 298 0 329 0 330 331 0 0
2021-05-06 00:00 3 2 49 0.0 0 299 0 330 0 331 332 0 0
2021-05-06 01:00 3 2 48 0.0 0 298 0 330 0 332 334 0 0
2021-05-06 02:00 3 3 49 0.0 0 297 0 333 0 334 335 0 0
2021-05-06 03:00 3 3 50 0.0 0 299 0 330 0 332 333 0 0
2021-05-06 04:00 3 3 51 0.0 0 298 0 332 0 333 334 0 0
2021-05-06 05:00 3 3 51 0.0 0 298 0 332 0 333 334 37 12
2021-05-06 06:00 4 3 50 0.0 0 298 0 333 26 335 338 131 78
2021-05-06 07:00 6 4 46 0.0 0 298 0 337 112 346 354 362 255
2021-05-06 08:00 8 6 39 0.0 0 297 0 352 246 356 358 495 386
2021-05-06 09:00 9 8 36 0.0 0 296 0 357 344 361 366 728 504
2021-05-06 10:00 10 9 35 0.0 0 296 0 357 159 364 369 764 396
2021-05-06 11:00 10 9 36 0.0 0 296 0 357 126 360 366 499 306
2021-05-06 12:00 10 9 36 0.0 0 296 0 363 412 367 369 670 510
2021-05-06 13:00 10 9 36 0.0 0 296 0 363 364 365 369 832 541
2021-05-06 14:00 10 10 37 0.0 0 295 0 365 410 368 370 832 633
2021-05-06 15:00 10 10 36 0.0 0 295 0 365 210 368 371 865 434
2021-05-06 16:00 11 10 36 0.0 0 295 0 365 210 369 376 723 367
2021-05-06 17:00 12 11 34 0.0 0 294 0 365 109 372 377 684 255
2021-05-06 18:00 11 10 38 0.0 0 294 0 363 36 365 368 177 128